Time;durP1;ratioP1;P1;durP2;ratioP2;P2;SDS_P1;SDS_P2;PMS_P1;PMS_P2;Temp;Humidity;BMP_temperature;BMP_pressure;BME280_temperature;BME280_humidity;BME280_pressure;Samples;Min_cycle;Max_cycle;Signal;HPM_P1;HPM_P2
2022/06/12 00:01:04;;;;;;;6.65;0.95;;;;;;;18.35;59.97;101905.84;7378578;19;20083;-79
2022/06/12 00:03:33;;;;;;;5.18;0.80;;;;;;;18.31;59.57;101910.69;7378800;19;20011;-81
2022/06/12 00:06:02;;;;;;;5.72;0.60;;;;;;;18.27;59.41;101909.41;7379879;19;20368;-79
2022/06/12 00:08:31;;;;;;;9.18;0.77;;;;;;;18.24;59.84;101909.72;7374731;19;20011;-77
2022/06/12 00:11:03;;;;;;;6.57;0.70;;;;;;;18.19;59.65;101903.28;7381359;19;20018;-78
2022/06/12 00:13:36;;;;;;;7.45;0.63;;;;;;;18.15;59.77;101904.63;7379194;19;20010;-78
2022/06/12 00:16:04;;;;;;;8.50;0.73;;;;;;;18.07;59.89;101913.50;7378586;19;20436;-77
2022/06/12 00:18:32;;;;;;;6.28;0.75;;;;;;;18.01;60.59;101908.88;7363642;19;20017;-77
2022/06/12 00:21:11;;;;;;;5.40;1.15;;;;;;;18.02;60.51;101917.72;7367484;19;20014;-77
2022/06/12 00:23:52;;;;;;;13.70;0.85;;;;;;;17.99;60.40;101921.53;7380596;19;20371;-76
2022/06/12 00:26:26;;;;;;;4.18;0.70;;;;;;;17.97;60.04;101923.56;7377795;19;20007;-77
2022/06/12 00:29:05;;;;;;;6.78;0.50;;;;;;;17.95;60.24;101917.56;7378715;19;20022;-79
2022/06/12 00:31:35;;;;;;;9.10;0.70;;;;;;;17.94;59.98;101910.56;7378558;19;20110;-79
2022/06/12 00:34:03;;;;;;;6.15;0.70;;;;;;;17.90;60.85;101912.75;7379109;19;20011;-78
2022/06/12 00:36:31;;;;;;;9.77;1.75;;;;;;;17.88;60.94;101912.09;7378442;19;20015;-78
2022/06/12 00:38:59;;;;;;;5.93;0.52;;;;;;;17.89;59.93;101918.25;7378276;19;20006;-78
2022/06/12 00:41:26;;;;;;;6.55;0.50;;;;;;;17.85;59.84;101915.13;7379269;19;20106;-78
2022/06/12 00:43:53;;;;;;;5.25;0.50;;;;;;;17.85;60.09;101911.63;7378330;19;20078;-77
2022/06/12 00:46:50;;;;;;;5.72;0.65;;;;;;;17.84;59.92;101904.63;7376682;19;20026;-78
2022/06/12 00:49:42;;;;;;;5.63;0.60;;;;;;;17.80;60.59;101904.16;7375232;19;20460;-77
2022/06/12 00:52:11;;;;;;;6.10;0.70;;;;;;;17.74;61.85;101912.00;7379130;19;20316;-77
2022/06/12 00:54:42;;;;;;;8.15;0.65;;;;;;;17.69;61.10;101909.03;7377346;19;20010;-77
2022/06/12 00:57:10;;;;;;;6.15;0.43;;;;;;;17.68;60.97;101912.69;7376997;19;20018;-75
2022/06/12 00:59:40;;;;;;;5.60;0.95;;;;;;;17.62;61.23;101910.72;7383621;19;20113;-77
2022/06/12 01:02:22;;;;;;;8.07;0.70;;;;;;;17.54;61.87;101912.38;7384628;19;20727;-77
2022/06/12 01:07:40;;;;;;;6.68;0.80;;;;;;;17.43;62.50;101911.91;7384369;19;20018;-79
2022/06/12 01:10:10;;;;;;;6.75;0.50;;;;;;;17.42;62.76;101908.41;7384999;19;20014;-78
2022/06/12 01:12:44;;;;;;;7.90;0.57;;;;;;;17.41;63.28;101898.78;7384943;19;20074;-77
2022/06/12 01:15:17;;;;;;;8.07;0.60;;;;;;;17.41;63.55;101914.75;7383910;19;20332;-81
2022/06/12 01:17:50;;;;;;;4.28;0.65;;;;;;;17.36;63.83;101913.59;7385011;19;20444;-78
2022/06/12 01:20:25;;;;;;;11.18;0.90;;;;;;;17.33;64.31;101909.44;7383000;19;20337;-77
2022/06/12 01:23:13;;;;;;;6.15;0.93;;;;;;;17.31;64.82;101914.13;7386741;19;20095;-78
2022/06/12 01:26:00;;;;;;;10.23;0.70;;;;;;;17.30;65.37;101911.63;7386225;19;20117;-78
2022/06/12 01:28:47;;;;;;;14.00;0.70;;;;;;;17.28;65.32;101910.94;7383170;19;20018;-80
2022/06/12 01:31:36;;;;;;;6.38;0.70;;;;;;;17.28;65.55;101916.25;7385568;19;20053;-79
2022/06/12 01:34:22;;;;;;;3.88;0.57;;;;;;;17.30;65.42;101922.25;7386765;19;20337;-78
2022/06/12 01:37:01;;;;;;;5.22;0.45;;;;;;;17.31;65.97;101914.13;7383398;19;20067;-78
2022/06/12 01:39:40;;;;;;;6.75;0.70;;;;;;;17.27;65.62;101912.75;7386512;19;20338;-79
2022/06/12 01:43:06;;;;;;;5.80;0.60;;;;;;;17.26;66.10;101912.97;7383620;19;20096;-78
2022/06/12 01:45:44;;;;;;;8.45;1.15;;;;;;;17.21;66.62;101916.13;7380422;19;20002;-78
2022/06/12 01:48:25;;;;;;;5.47;0.93;;;;;;;17.19;66.15;101914.63;7383582;19;20027;-77
2022/06/12 01:51:13;;;;;;;13.68;1.17;;;;;;;17.18;66.31;101910.28;7384675;19;20114;-76
2022/06/12 01:53:39;;;;;;;11.25;0.75;;;;;;;17.21;66.41;101909.97;7385828;19;20039;-78
2022/06/12 01:56:19;;;;;;;10.35;0.70;;;;;;;17.24;66.76;101914.94;7382884;19;20304;-76
2022/06/12 01:58:56;;;;;;;6.55;0.63;;;;;;;17.28;68.24;101916.25;7382458;19;20015;-78
2022/06/12 02:01:39;;;;;;;4.80;0.60;;;;;;;17.23;66.75;101913.28;7380806;19;20117;-78
2022/06/12 02:04:19;;;;;;;11.35;1.08;;;;;;;17.17;66.60;101909.47;7383720;19;20090;-77
2022/06/12 02:07:17;;;;;;;6.43;0.90;;;;;;;17.13;66.46;101916.13;7383006;19;20025;-77
2022/06/12 02:09:59;;;;;;;10.35;0.80;;;;;;;17.07;66.91;101908.81;7380040;19;20292;-78
2022/06/12 02:15:22;;;;;;;4.93;0.63;;;;;;;16.96;68.55;101906.53;7382079;19;20082;-77
2022/06/12 02:17:58;;;;;;;9.73;0.60;;;;;;;16.95;67.53;101919.00;7383290;19;20570;-78
2022/06/12 02:20:31;;;;;;;6.82;0.85;;;;;;;16.95;68.15;101908.34;7385209;19;20017;-78
2022/06/12 02:23:01;;;;;;;12.40;0.98;;;;;;;16.90;68.15;101900.03;7382764;19;20468;-78
2022/06/12 02:25:33;;;;;;;8.90;0.80;;;;;;;16.82;68.75;101905.34;7382825;19;20430;-78
2022/06/12 02:28:06;;;;;;;12.40;0.95;;;;;;;16.83;69.05;101912.34;7381356;19;20015;-77
2022/06/12 02:30:39;;;;;;;8.63;0.70;;;;;;;16.85;69.10;101897.06;7384615;19;20321;-79
2022/06/12 02:33:21;;;;;;;9.38;0.88;;;;;;;16.87;69.66;101900.38;7380789;19;20333;-77
2022/06/12 02:35:53;;;;;;;10.80;0.85;;;;;;;16.88;69.67;101894.06;7383690;19;20010;-78
2022/06/12 02:38:29;;;;;;;8.25;1.10;;;;;;;16.84;69.54;101895.38;7383312;19;20007;-78
2022/06/12 02:41:01;;;;;;;11.13;1.10;;;;;;;16.80;69.95;101893.25;7381983;19;20837;-76
2022/06/12 02:43:32;;;;;;;10.05;0.73;;;;;;;16.76;70.26;101899.88;7381422;19;20012;-78
2022/06/12 02:46:30;;;;;;;9.10;0.80;;;;;;;16.79;70.46;101895.06;7382984;19;20025;-78
2022/06/12 02:48:58;;;;;;;9.45;1.00;;;;;;;16.80;70.22;101894.06;7383905;19;20324;-76
2022/06/12 02:51:39;;;;;;;10.50;0.90;;;;;;;16.80;70.68;101895.91;7382264;19;20043;-79
2022/06/12 02:54:24;;;;;;;4.32;0.80;;;;;;;16.76;70.55;101889.25;7380973;19;20017;-77
2022/06/12 02:57:08;;;;;;;10.55;0.98;;;;;;;16.74;70.95;101894.72;7381824;19;20016;-77
2022/06/12 02:59:55;;;;;;;10.48;1.42;;;;;;;16.64;71.28;101892.25;7379823;19;20467;-77
2022/06/12 03:02:50;;;;;;;8.90;1.42;;;;;;;16.62;71.68;101896.06;7380293;19;20015;-77
2022/06/12 03:05:31;;;;;;;8.40;1.00;;;;;;;16.58;72.91;101890.25;7379106;19;20014;-77
2022/06/12 03:08:06;;;;;;;9.15;0.85;;;;;;;16.57;72.81;101891.19;7379880;19;20516;-81
2022/06/12 03:10:41;;;;;;;13.82;0.80;;;;;;;16.59;71.94;101894.56;7384017;19;20037;-78
2022/06/12 03:13:10;;;;;;;4.70;0.77;;;;;;;16.60;72.02;101890.91;7379852;19;20022;-80
2022/06/12 03:15:40;;;;;;;8.82;0.90;;;;;;;16.56;71.89;101897.50;7379065;19;20019;-78
2022/06/12 03:18:13;;;;;;;6.13;0.88;;;;;;;16.56;72.27;101899.34;7380200;19;20013;-79
2022/06/12 03:20:54;;;;;;;5.68;1.00;;;;;;;16.53;72.19;101899.66;7380644;19;20007;-78
2022/06/12 03:23:27;;;;;;;7.50;1.60;;;;;;;16.47;73.52;101897.66;7380187;19;20059;-79
2022/06/12 03:25:56;;;;;;;;;;;;;;;16.45;73.26;101895.19;7380252;19;20010;-78
2022/06/12 03:28:35;;;;;;;12.73;1.08;;;;;;;16.42;73.41;101892.84;7380251;19;20399;-78
2022/06/12 03:31:07;;;;;;;5.60;0.90;;;;;;;16.42;73.43;101897.34;7381017;19;20018;-76
2022/06/12 03:33:52;;;;;;;10.18;0.75;;;;;;;16.39;73.34;101892.34;7381178;19;20026;-77
2022/06/12 03:36:26;;;;;;;10.73;1.20;;;;;;;16.38;73.57;101893.34;7376011;19;20010;-77
2022/06/12 03:38:58;;;;;;;7.55;0.98;;;;;;;16.41;74.30;101903.63;7380246;19;20027;-77
2022/06/12 03:41:55;;;;;;;11.38;1.02;;;;;;;16.41;73.52;101895.66;7380500;19;20043;-77
2022/06/12 03:44:34;;;;;;;11.25;1.13;;;;;;;16.43;74.00;101902.50;7379499;19;20233;-78
2022/06/12 03:47:10;;;;;;;9.25;0.90;;;;;;;16.47;73.69;101901.16;7380368;19;20515;-78
2022/06/12 03:50:06;;;;;;;7.88;0.93;;;;;;;16.45;73.57;101908.47;7380852;19;20450;-78
2022/06/12 03:53:01;;;;;;;8.65;0.82;;;;;;;16.43;73.99;101904.31;7379335;19;20018;-78
2022/06/12 03:58:42;;;;;;;10.43;1.27;;;;;;;16.49;74.08;101912.47;7380285;19;20535;-79
2022/06/12 04:01:10;;;;;;;7.60;0.95;;;;;;;16.49;73.91;101908.97;7377352;19;20098;-78
2022/06/12 04:03:44;;;;;;;10.50;1.05;;;;;;;16.44;74.29;101901.50;7380211;19;20093;-77
2022/06/12 04:06:18;;;;;;;11.00;1.20;;;;;;;16.43;74.48;101902.50;7379729;19;20418;-78
2022/06/12 04:08:51;;;;;;;11.60;1.50;;;;;;;16.44;74.40;101908.63;7380387;19;20003;-78
2022/06/12 04:11:21;;;;;;;6.88;1.23;;;;;;;16.36;74.18;101905.94;7377111;19;20014;-78
2022/06/12 04:13:51;;;;;;;11.23;1.27;;;;;;;16.33;74.99;101907.13;7380535;19;20033;-78
2022/06/12 04:16:30;;;;;;;15.70;1.27;;;;;;;16.33;74.88;101906.28;7378314;19;20810;-78
2022/06/12 04:19:00;;;;;;;11.68;1.25;;;;;;;16.31;75.04;101908.28;7379813;19;20193;-78
2022/06/12 04:21:34;;;;;;;10.80;1.48;;;;;;;16.20;75.17;101907.59;7378007;19;20335;-79
2022/06/12 04:24:20;;;;;;;14.02;2.10;;;;;;;16.17;75.46;101909.75;7380824;19;20031;-78
2022/06/12 04:26:56;;;;;;;11.73;1.30;;;;;;;16.14;75.83;101907.44;7379820;19;20468;-78
2022/06/12 04:29:31;;;;;;;7.22;1.75;;;;;;;16.13;76.49;101913.72;7378712;19;20013;-78
2022/06/12 04:32:01;;;;;;;9.55;1.17;;;;;;;16.09;76.28;101907.91;7379282;19;20019;-77
2022/06/12 04:34:38;;;;;;;9.48;0.98;;;;;;;16.07;76.47;101909.06;7384545;19;20018;-76
2022/06/12 04:37:11;;;;;;;6.40;1.20;;;;;;;16.07;75.98;101915.19;7386305;19;20344;-78
2022/06/12 04:39:37;;;;;;;;;;;;;;;16.10;75.78;101916.72;7388589;19;20031;-78
2022/06/12 04:42:05;;;;;;;11.23;1.00;;;;;;;16.10;75.95;101901.59;7385873;19;20177;-78
2022/06/12 04:44:33;;;;;;;10.60;1.55;;;;;;;16.09;75.72;101905.25;7385638;19;20595;-78
2022/06/12 04:47:02;;;;;;;14.88;1.33;;;;;;;16.14;76.53;101904.78;7385748;19;20282;-78
2022/06/12 04:49:32;;;;;;;5.38;0.77;;;;;;;16.17;75.96;101899.97;7386821;19;20545;-78
2022/06/12 04:52:01;;;;;;;8.95;1.08;;;;;;;16.18;75.73;101900.78;7387654;19;20370;-77
2022/06/12 04:54:29;;;;;;;12.38;1.05;;;;;;;16.10;75.43;101909.56;7387713;19;20518;-78
2022/06/12 04:56:58;;;;;;;10.90;1.02;;;;;;;16.04;75.50;101910.22;7386339;19;20014;-78
2022/06/12 04:59:26;;;;;;;10.63;1.25;;;;;;;16.00;76.08;101902.75;7384104;19;20013;-77
2022/06/12 05:01:53;;;;;;;8.18;1.17;;;;;;;16.00;77.39;101908.84;7381960;19;20021;-78
2022/06/12 05:04:22;;;;;;;8.90;1.00;;;;;;;16.04;76.82;101904.91;7386634;19;20014;-79
2022/06/12 05:06:52;;;;;;;6.00;0.60;;;;;;;16.09;76.18;101912.38;7382623;19;20015;-78
2022/06/12 05:09:23;;;;;;;14.95;1.88;;;;;;;16.11;76.07;101911.22;7385920;19;20015;-78
2022/06/12 05:11:50;;;;;;;7.50;1.58;;;;;;;16.13;76.02;101911.91;7385704;19;20025;-77
2022/06/12 05:14:17;;;;;;;9.27;0.80;;;;;;;16.14;76.08;101912.72;7387270;19;20026;-77
2022/06/12 05:16:52;;;;;;;9.52;0.93;;;;;;;16.14;76.26;101910.91;7385003;19;20086;-77
2022/06/12 05:19:22;;;;;;;11.77;1.25;;;;;;;16.12;76.34;101920.03;7385196;19;20105;-77
2022/06/12 05:21:50;;;;;;;15.00;1.23;;;;;;;16.07;75.94;101917.84;7382760;19;20006;-77
2022/06/12 05:24:17;;;;;;;9.27;1.35;;;;;;;16.06;76.18;101916.19;7387271;19;20115;-78
2022/06/12 05:26:48;;;;;;;11.20;1.15;;;;;;;16.07;76.23;101911.72;7385127;19;20085;-78
2022/06/12 05:29:22;;;;;;;14.35;1.63;;;;;;;16.04;76.09;101904.06;7386508;19;20021;-77
2022/06/12 05:31:49;;;;;;;8.30;0.98;;;;;;;16.02;76.18;101909.53;7383822;19;20111;-78
2022/06/12 05:34:17;;;;;;;5.53;0.90;;;;;;;16.02;76.57;101909.53;7384222;19;20377;-77
2022/06/12 05:36:45;;;;;;;10.63;1.00;;;;;;;16.08;77.99;101908.91;7384017;19;20043;-78
2022/06/12 05:39:12;;;;;;;9.10;1.25;;;;;;;16.14;76.35;101910.09;7384225;19;20335;-78
2022/06/12 05:41:40;;;;;;;8.40;0.98;;;;;;;16.17;76.14;101915.06;7384949;19;20375;-78
2022/06/12 05:44:07;;;;;;;10.05;1.58;;;;;;;16.16;76.20;101910.72;7383519;19;20367;-78
2022/06/12 05:46:34;;;;;;;5.60;1.23;;;;;;;16.20;76.37;101912.91;7381354;19;20021;-78
2022/06/12 05:49:02;;;;;;;7.97;1.17;;;;;;;16.23;76.30;101917.06;7386888;19;20014;-78
2022/06/12 05:51:30;;;;;;;8.38;1.70;;;;;;;16.25;76.08;101918.56;7384021;19;20373;-78
2022/06/12 05:53:57;;;;;;;8.05;0.90;;;;;;;16.29;76.25;101924.38;7387214;19;20021;-78
2022/06/12 05:56:27;;;;;;;12.63;1.00;;;;;;;16.33;75.72;101925.72;7382908;19;20015;-77
2022/06/12 05:58:56;;;;;;;11.15;0.90;;;;;;;16.34;75.61;101923.91;7383988;19;20113;-79
2022/06/12 06:01:23;;;;;;;9.95;0.95;;;;;;;16.44;75.38;101929.91;7379003;19;20017;-77
2022/06/12 06:03:50;;;;;;;6.88;0.80;;;;;;;16.51;74.94;101930.88;7385018;19;20017;-78
2022/06/12 06:06:21;;;;;;;9.48;1.58;;;;;;;16.55;74.66;101927.75;7379228;19;20018;-78
2022/06/12 06:08:49;;;;;;;8.18;1.10;;;;;;;16.59;74.75;101930.94;7383727;19;20133;-78
2022/06/12 06:11:16;;;;;;;8.65;0.90;;;;;;;16.66;75.89;101929.25;7384140;19;20031;-77
2022/06/12 06:13:43;;;;;;;10.57;1.58;;;;;;;16.68;74.84;101937.91;7382938;19;20479;-77
2022/06/12 06:16:10;;;;;;;15.68;1.58;;;;;;;16.73;73.64;101932.09;7382863;19;20021;-77
2022/06/12 06:18:40;;;;;;;10.10;0.77;;;;;;;16.71;73.59;101929.59;7381312;19;20109;-77
2022/06/12 06:21:08;;;;;;;14.75;0.88;;;;;;;16.66;73.71;101927.44;7380897;19;20349;-78
2022/06/12 06:23:36;;;;;;;8.75;0.90;;;;;;;16.63;74.16;101937.59;7382885;19;20074;-78
2022/06/12 06:26:03;;;;;;;8.43;1.20;;;;;;;16.63;74.82;101938.41;7384084;19;20567;-77
2022/06/12 06:28:30;;;;;;;8.35;1.35;;;;;;;16.64;74.17;101942.75;7384603;19;20335;-78
2022/06/12 06:30:57;;;;;;;8.10;1.00;;;;;;;16.70;73.44;101946.56;7381780;19;20476;-78
2022/06/12 06:33:24;;;;;;;9.93;0.80;;;;;;;16.79;73.01;101942.09;7382265;19;20109;-77
2022/06/12 06:35:52;;;;;;;10.93;1.13;;;;;;;16.83;73.11;101941.59;7383275;19;20011;-78
2022/06/12 06:38:19;;;;;;;8.07;1.48;;;;;;;16.90;72.29;101950.56;7382462;19;20018;-77
2022/06/12 06:40:47;;;;;;;6.45;2.00;;;;;;;16.95;71.60;101952.72;7385820;19;20017;-78
2022/06/12 06:43:14;;;;;;;8.73;1.00;;;;;;;16.90;71.81;101947.91;7381508;19;20015;-78
2022/06/12 06:48:28;;;;;;;9.65;1.00;;;;;;;16.97;71.67;101956.03;7382762;19;20688;-77
2022/06/12 06:50:55;;;;;;;11.52;0.63;;;;;;;17.02;71.47;101959.00;7383093;19;20460;-77
2022/06/12 06:53:23;;;;;;;9.85;1.00;;;;;;;17.04;70.66;101957.88;7382925;19;20348;-78
2022/06/12 06:55:50;;;;;;;4.97;0.82;;;;;;;17.08;70.42;101958.34;7382029;19;20009;-78
2022/06/12 06:58:21;;;;;;;8.27;0.98;;;;;;;17.05;70.65;101962.19;7383643;19;20035;-79
2022/06/12 07:00:49;;;;;;;10.13;1.13;;;;;;;17.08;70.70;101961.84;7383085;19;20011;-79
2022/06/12 07:03:17;;;;;;;11.85;1.00;;;;;;;17.10;70.24;101967.84;7381758;19;20020;-78
2022/06/12 07:05:46;;;;;;;7.43;1.05;;;;;;;17.10;70.35;101972.34;7381714;19;20345;-77
2022/06/12 07:08:14;;;;;;;7.82;0.75;;;;;;;17.09;70.45;101976.81;7381995;19;20483;-79
2022/06/12 07:10:42;;;;;;;11.35;1.67;;;;;;;17.07;70.43;101967.31;7381927;19;20391;-79
2022/06/12 07:13:09;;;;;;;13.23;1.88;;;;;;;17.08;70.74;101969.81;7380842;19;20022;-78
2022/06/12 07:15:37;;;;;;;11.18;1.00;;;;;;;17.13;72.57;101971.97;7380373;19;20067;-78
2022/06/12 07:18:07;;;;;;;13.75;1.40;;;;;;;17.15;71.66;101970.00;7380315;19;20007;-79
2022/06/12 07:20:38;;;;;;;11.73;2.03;;;;;;;17.15;71.23;101975.31;7381813;19;20017;-77
2022/06/12 07:23:07;;;;;;;8.45;1.08;;;;;;;17.18;70.99;101974.97;7380939;19;20015;-77
2022/06/12 07:25:39;;;;;;;7.43;0.80;;;;;;;17.21;70.51;101966.69;7380953;19;20406;-77
2022/06/12 07:28:06;;;;;;;5.53;1.13;;;;;;;17.24;70.43;101968.16;7379953;19;20520;-78
2022/06/12 07:30:36;;;;;;;13.98;1.35;;;;;;;17.29;70.39;101966.66;7381744;19;20031;-78
2022/06/12 07:33:04;;;;;;;8.48;1.40;;;;;;;17.36;71.74;101957.00;7380248;19;20358;-77
2022/06/12 07:35:31;;;;;;;8.88;1.10;;;;;;;17.45;70.14;101961.31;7381443;19;20776;-77
2022/06/12 07:38:00;;;;;;;9.68;1.00;;;;;;;17.58;69.02;101966.09;7379730;19;20086;-77
2022/06/12 07:40:32;;;;;;;8.82;1.25;;;;;;;17.83;68.65;101969.53;7384012;19;20066;-78
2022/06/12 07:42:59;;;;;;;7.78;1.20;;;;;;;18.27;67.44;101965.34;7379487;19;20053;-78
2022/06/12 07:45:26;;;;;;;6.15;0.80;;;;;;;18.71;65.46;101970.09;7380402;19;20026;-78
2022/06/12 07:47:53;;;;;;;9.68;1.17;;;;;;;18.95;63.87;101974.41;7378317;19;20007;-78
2022/06/12 07:50:20;;;;;;;6.22;0.82;;;;;;;18.92;63.36;101975.59;7381915;19;20017;-79
2022/06/12 07:52:47;;;;;;;7.40;1.38;;;;;;;18.89;62.87;101975.16;7379951;19;20016;-77
2022/06/12 07:55:16;;;;;;;6.03;0.80;;;;;;;18.78;62.99;101977.22;7379216;19;20028;-78
2022/06/12 07:57:44;;;;;;;6.10;1.10;;;;;;;18.71;63.11;101984.25;7381026;19;20080;-78
2022/06/12 08:00:13;;;;;;;9.77;0.75;;;;;;;18.61;63.64;101978.34;7380373;19;20114;-78
2022/06/12 08:02:46;;;;;;;9.75;1.20;;;;;;;18.54;63.73;101979.22;7377858;19;20006;-78
2022/06/12 08:05:15;;;;;;;7.28;0.90;;;;;;;18.46;64.32;101979.22;7380916;19;20032;-78
2022/06/12 08:07:42;;;;;;;5.75;0.95;;;;;;;18.44;63.94;101975.94;7375845;19;20131;-78
2022/06/12 08:10:11;;;;;;;8.82;0.77;;;;;;;18.43;63.99;101985.75;7380392;19;20045;-79
2022/06/12 08:12:40;;;;;;;8.13;0.73;;;;;;;18.41;64.41;101986.94;7380743;19;20487;-79
2022/06/12 08:15:12;;;;;;;8.35;1.17;;;;;;;18.39;64.01;101984.44;7379762;19;20041;-78
2022/06/12 08:17:39;;;;;;;7.63;0.90;;;;;;;18.36;64.47;101980.28;7377781;19;20399;-79
2022/06/12 08:20:25;;;;;;;8.40;1.33;;;;;;;18.31;64.29;101974.66;7379627;19;20015;-78
2022/06/12 08:23:06;;;;;;;6.45;0.98;;;;;;;18.31;64.87;101980.00;7378507;19;20364;-77
2022/06/12 08:25:36;;;;;;;7.53;0.75;;;;;;;18.37;64.45;101978.47;7380764;19;20010;-77
2022/06/12 08:28:03;;;;;;;6.07;1.00;;;;;;;18.49;63.65;101979.69;7380506;19;20042;-78
2022/06/12 08:30:30;;;;;;;4.68;0.70;;;;;;;18.57;63.45;101978.88;7378387;19;20015;-77
2022/06/12 08:32:57;;;;;;;8.52;0.70;;;;;;;18.65;63.96;101979.63;7378926;19;20015;-78
2022/06/12 08:35:30;;;;;;;4.95;0.90;;;;;;;18.75;62.98;101984.72;7377457;19;20406;-78
2022/06/12 08:37:59;;;;;;;8.15;1.13;;;;;;;18.86;61.99;101973.66;7378967;19;20039;-79
2022/06/12 08:40:56;;;;;;;8.20;1.00;;;;;;;18.95;63.06;101977.06;7379887;19;20017;-77
2022/06/12 08:43:32;;;;;;;11.73;1.15;;;;;;;19.03;61.68;101971.69;7380266;19;20046;-78
2022/06/12 08:46:09;;;;;;;9.82;0.82;;;;;;;19.07;60.75;101981.81;7378100;19;20014;-79
2022/06/12 08:48:49;;;;;;;9.32;0.90;;;;;;;19.09;59.30;101978.97;7379077;19;20494;-78
2022/06/12 08:51:51;;;;;;;8.23;0.70;;;;;;;19.04;59.58;101974.19;7375899;19;20010;-78
2022/06/12 08:54:29;;;;;;;6.90;0.60;;;;;;;19.04;60.23;101978.69;7376716;19;20047;-79
2022/06/12 08:57:04;;;;;;;4.03;0.77;;;;;;;19.06;61.47;101977.47;7379732;19;20010;-80
2022/06/12 08:59:42;;;;;;;9.18;0.70;;;;;;;19.09;60.62;101968.31;7378677;19;20007;-77
2022/06/12 09:02:47;;;;;;;10.32;0.85;;;;;;;19.09;60.07;101978.97;7377147;19;20469;-78
2022/06/12 09:05:52;;;;;;;;;;;;;;;;;;;;;
2022/06/12 09:08:36;;;;;;;5.55;1.00;;;;;;;19.10;58.78;101970.78;7380528;19;20022;-79
2022/06/12 09:11:23;;;;;;;7.95;0.70;;;;;;;19.12;58.33;101968.75;7376680;19;20002;-79
2022/06/12 09:14:11;;;;;;;7.43;0.98;;;;;;;19.10;59.48;101978.78;7379273;19;20042;-79
2022/06/12 09:16:56;;;;;;;5.95;0.90;;;;;;;19.07;58.60;101973.81;7375142;19;20105;-78
2022/06/12 09:19:41;;;;;;;4.38;0.70;;;;;;;19.06;59.24;101974.81;7382176;19;20006;-79
2022/06/12 09:22:19;;;;;;;6.13;0.45;;;;;;;19.11;58.47;101960.94;7380991;19;20029;-79
2022/06/12 09:25:06;;;;;;;5.38;0.75;;;;;;;19.17;57.44;101961.03;7388711;19;20014;-80
2022/06/12 09:28:01;;;;;;;3.15;0.70;;;;;;;19.20;57.00;101960.66;7386035;19;20021;-79
2022/06/12 09:30:34;;;;;;;4.95;0.70;;;;;;;19.16;57.24;101963.88;7383610;19;20135;-78
2022/06/12 09:33:11;;;;;;;5.65;1.00;;;;;;;19.16;57.40;101961.22;7387020;19;20730;-78
2022/06/12 09:35:44;;;;;;;7.47;0.75;;;;;;;19.15;57.48;101957.72;7387717;19;20015;-79
2022/06/12 09:39:08;;;;;;;7.90;0.60;;;;;;;19.19;56.24;101964.38;7384362;19;20257;-78
2022/06/12 09:41:51;;;;;;;6.18;0.88;;;;;;;19.11;56.73;101961.75;7380489;19;20421;-78
2022/06/12 09:44:32;;;;;;;3.38;0.63;;;;;;;19.12;57.19;101959.94;7383790;19;20011;-79
2022/06/12 09:47:08;;;;;;;3.10;0.75;;;;;;;19.11;57.31;101967.09;7381642;19;20378;-78
2022/06/12 09:50:38;;;;;;;2.90;0.80;;;;;;;19.13;58.14;101954.41;7385069;19;20110;-75
2022/06/12 09:53:39;;;;;;;7.65;0.80;;;;;;;19.19;56.33;101952.88;7383635;19;20381;-80
2022/06/12 09:56:54;;;;;;;3.50;0.90;;;;;;;19.19;56.67;101953.69;7384629;19;20351;-79
2022/06/12 09:59:43;;;;;;;2.58;0.45;;;;;;;19.19;57.36;101953.69;7386994;19;20027;-79
2022/06/12 10:02:48;;;;;;;8.10;0.68;;;;;;;19.20;57.48;101959.84;7385143;19;20558;-80
2022/06/12 10:05:50;;;;;;;2.85;0.55;;;;;;;19.24;58.04;101961.16;7352995;19;20041;-79
2022/06/12 10:08:51;;;;;;;3.60;0.60;;;;;;;19.31;57.08;101969.25;7380082;19;20097;-78
2022/06/12 10:11:28;;;;;;;5.65;0.52;;;;;;;19.35;56.12;101966.03;7384386;19;20082;-78
2022/06/12 10:14:02;;;;;;;6.70;0.57;;;;;;;19.40;56.08;101971.66;7383796;19;20015;-79
2022/06/12 10:16:45;;;;;;;4.07;0.50;;;;;;;19.47;56.24;101967.28;7382692;19;20419;-79
2022/06/12 10:19:53;;;;;;;5.75;0.50;;;;;;;19.51;55.64;101957.06;7387095;19;20010;-79
2022/06/12 10:22:32;;;;;;;6.82;0.50;;;;;;;19.52;56.34;101964.06;7381979;19;20034;-79
2022/06/12 10:25:00;;;;;;;5.78;0.60;;;;;;;19.56;55.65;101963.50;7384172;19;20370;-79
2022/06/12 10:27:50;;;;;;;4.22;0.60;;;;;;;19.57;55.18;101961.66;7381386;19;20007;-79
2022/06/12 10:30:32;;;;;;;7.28;1.10;;;;;;;19.56;54.98;101968.84;7379471;19;20007;-80
2022/06/12 10:33:12;;;;;;;5.87;0.67;;;;;;;19.58;54.47;101964.16;7381313;19;20003;-78
2022/06/12 10:35:54;;;;;;;9.27;0.50;;;;;;;19.63;54.71;101955.59;7381848;19;20288;-79
2022/06/12 10:38:23;;;;;;;5.68;0.50;;;;;;;19.76;53.48;101950.44;7380806;19;20388;-78
2022/06/12 10:40:56;;;;;;;6.18;0.77;;;;;;;19.81;53.50;101952.56;7385475;19;20078;-80
2022/06/12 10:43:27;;;;;;;;;;;;;;;19.85;53.24;101952.00;7380291;19;20015;-79
2022/06/12 10:46:15;;;;;;;5.90;0.70;;;;;;;19.89;52.93;101955.13;7382152;19;19914;-78
2022/06/12 10:48:55;;;;;;;3.70;0.50;;;;;;;19.91;53.31;101955.78;7382093;19;20006;-78
2022/06/12 10:51:30;;;;;;;3.85;0.52;;;;;;;19.87;54.18;101952.63;7382401;19;20040;-76
2022/06/12 10:54:12;;;;;;;7.80;0.65;;;;;;;19.87;53.96;101949.13;7382737;19;20090;-80
2022/06/12 10:56:46;;;;;;;5.53;0.50;;;;;;;19.86;53.50;101950.97;7381719;19;20129;-78
2022/06/12 10:59:19;;;;;;;2.47;0.40;;;;;;;19.86;52.99;101945.63;7384620;19;20011;-78
2022/06/12 11:01:52;;;;;;;6.63;0.68;;;;;;;19.87;53.28;101936.59;7378655;19;20773;-79
2022/06/12 11:05:08;;;;;;;3.80;0.50;;;;;;;19.91;53.01;101942.41;7381528;19;20015;-78
2022/06/12 11:08:18;;;;;;;4.57;0.52;;;;;;;19.99;52.78;101942.31;7375445;19;20017;-78
2022/06/12 11:10:57;;;;;;;2.40;0.40;;;;;;;20.02;52.00;101932.06;7382767;19;20066;-78
2022/06/12 11:13:42;;;;;;;3.63;0.55;;;;;;;20.08;52.88;101925.97;7380173;19;20409;-80
2022/06/12 11:16:18;;;;;;;4.55;0.57;;;;;;;20.19;51.24;101930.00;7373374;19;20023;-79
2022/06/12 11:19:21;;;;;;;3.45;0.50;;;;;;;20.29;50.79;101929.69;7380986;19;20031;-79
2022/06/12 11:22:10;;;;;;;6.82;0.80;;;;;;;20.38;49.87;101921.41;7381125;19;20029;-79
2022/06/12 11:24:55;;;;;;;3.58;0.50;;;;;;;20.46;49.98;101929.31;7376450;19;20011;-80
2022/06/12 11:27:43;;;;;;;1.88;0.52;;;;;;;20.63;52.21;101919.16;7378804;19;20011;-79
2022/06/12 11:30:44;;;;;;;1.83;0.40;;;;;;;20.78;48.98;101921.75;7378818;19;20003;-79
2022/06/12 11:33:27;;;;;;;3.05;0.50;;;;;;;20.86;48.52;101911.78;7379536;19;20014;-79
2022/06/12 11:36:15;;;;;;;2.88;0.40;;;;;;;20.92;48.06;101919.03;7379500;19;20014;-78
2022/06/12 11:38:53;;;;;;;5.70;0.50;;;;;;;21.00;48.28;101920.72;7382507;19;20029;-80
2022/06/12 11:41:20;;;;;;;3.50;0.57;;;;;;;21.14;48.79;101919.00;7380662;19;20014;-78
2022/06/12 11:43:58;;;;;;;5.90;0.50;;;;;;;21.18;47.59;101915.72;7380634;19;20451;-80
2022/06/12 11:46:40;;;;;;;4.93;0.45;;;;;;;21.23;47.44;101910.59;7379133;19;20324;-80
2022/06/12 11:49:28;;;;;;;5.72;0.60;;;;;;;21.24;48.06;101911.44;7382356;19;20335;-80
2022/06/12 11:52:27;;;;;;;3.45;0.43;;;;;;;21.29;48.03;101909.00;7381501;19;20011;-80
2022/06/12 11:55:41;;;;;;;1.95;0.40;;;;;;;21.34;48.01;101896.69;7382433;19;20014;-78
2022/06/12 11:58:46;;;;;;;11.65;3.72;;;;;;;21.40;48.22;101905.78;7375367;19;20401;-80
2022/06/12 12:01:25;;;;;;;4.72;0.95;;;;;;;21.39;47.24;101892.56;7378687;19;20015;-81
2022/06/12 12:04:11;;;;;;;4.75;0.98;;;;;;;21.40;46.72;101895.06;7379460;19;20050;-80
2022/06/12 12:06:54;;;;;;;4.68;0.40;;;;;;;21.40;45.48;101886.19;7375609;19;20003;-81
2022/06/12 12:09:43;;;;;;;3.97;0.63;;;;;;;21.43;46.71;101888.50;7375383;19;20010;-81
2022/06/12 12:12:18;;;;;;;3.53;0.90;;;;;;;21.44;47.31;101874.06;7377210;19;20423;-80
2022/06/12 12:14:47;;;;;;;4.28;0.50;;;;;;;21.47;47.69;101887.91;7377860;19;20083;-79
2022/06/12 12:17:24;;;;;;;4.10;0.80;;;;;;;21.49;47.35;101876.97;7377644;19;20016;-78
2022/06/12 12:20:18;;;;;;;5.43;0.70;;;;;;;21.46;48.38;101878.22;7377036;19;20423;-80